This is the latest recevied weather packets stored in our database for station/object EA6AMI-5. If no packets are shown the sender has not sent any weather packets the latest 10 day(s).
| Time | Temp. | Humidity | Pressure | Rain* | Wind** | Luminosity | Snow |
|---|---|---|---|---|---|---|---|
| 1787468404 | 26.11° C | 65% | 1017.7 hPa | 0 mm | - | 128 W/m² | - |
| 1787468043 | 26.11° C | 64% | 1017.8 hPa | 0 mm | - | 112 W/m² | - |
| 1787467503 | 26.11° C | 63% | 1017.5 hPa | 0 mm | - | 98 W/m² | - |
| 1787466963 | 25.56° C | 64% | 1017.4 hPa | 0 mm | - | 87 W/m² | - |
| 1787466423 | 25° C | 66% | 1017.3 hPa | 0 mm | - | 76 W/m² | - |
| 1787465883 | 24.44° C | 68% | 1017.2 hPa | 0 mm | - | 66 W/m² | - |
| 1787465343 | 22.78° C | 70% | 1017.3 hPa | 0 mm | - | 57 W/m² | - |
| 1787464803 | 22.22° C | 70% | 1017.3 hPa | 0 mm | - | 47 W/m² | - |
| 1787464443 | 22.22° C | 71% | 1017.2 hPa | 0 mm | - | 40 W/m² | - |
| 1787463903 | 22.78° C | 70% | 1017 hPa | 0 mm | - | 30 W/m² | - |
| 1787463363 | 22.22° C | 72% | 1017.1 hPa | 0 mm | - | 21 W/m² | - |
| 1787462823 | 22.78° C | 70% | 1017 hPa | 0 mm | - | 12 W/m² | - |
| 1787462283 | 22.22° C | 67% | 1016.7 hPa | 0 mm | - | 7 W/m² | - |
| 1787461744 | 22.22° C | 69% | 1016.6 hPa | 0 mm | - | 3 W/m² | - |
| 1787461203 | 21.67° C | 74% | 1016.3 hPa | 0 mm | - | 1 W/m² | - |
| 1787460843 | 21.67° C | 76% | 1016.3 hPa | 0 mm | - | 0 W/m² | - |
| 1787460303 | 21.67° C | 77% | 1016 hPa | 0 mm | - | 0 W/m² | - |
| 1787459763 | 21.67° C | 79% | 1016.1 hPa | 0 mm | - | 0 W/m² | - |
| 1787459224 | 22.22° C | 77% | 1016.2 hPa | 0 mm | - | 0 W/m² | - |
| 1787458683 | 22.22° C | 76% | 1016.4 hPa | 0 mm | - | 0 W/m² | - |
| 1787458143 | 22.78° C | 76% | 1016 hPa | 0 mm | - | 0 W/m² | - |
| 1787457603 | 22.78° C | 76% | 1016.2 hPa | 0 mm | - | 0 W/m² | - |
| 1787457243 | 22.78° C | 76% | 1016.2 hPa | 0 mm | - | 0 W/m² | - |
| 1787456704 | 22.22° C | 77% | 1016.4 hPa | 0 mm | - | 0 W/m² | - |
| 1787456164 | 22.78° C | 74% | 1016.3 hPa | 0 mm | - | 0 W/m² | - |
* Rain latest hour (hover to see other rain measurements)
** Current wind speed in m/s (hover to see current wind gust speed)